sensor_id;sensor_type;location;lat;lon;timestamp;P1;durP1;ratioP1;P2;durP2;ratioP2
37677;SDS011;23517;50.390;8.616;2023-05-10T00:00:59;0.20;;;0.20;;
37677;SDS011;23517;50.390;8.616;2023-05-10T00:03:25;1.25;;;0.30;;
37677;SDS011;23517;50.390;8.616;2023-05-10T00:05:52;0.63;;;0.30;;
37677;SDS011;23517;50.390;8.616;2023-05-10T00:08:19;0.20;;;0.20;;
37677;SDS011;23517;50.390;8.616;2023-05-10T00:10:45;4.40;;;0.32;;
37677;SDS011;23517;50.390;8.616;2023-05-10T00:13:12;5.18;;;0.30;;
37677;SDS011;23517;50.390;8.616;2023-05-10T00:15:39;2.35;;;0.50;;
37677;SDS011;23517;50.390;8.616;2023-05-10T00:18:06;0.20;;;0.20;;
37677;SDS011;23517;50.390;8.616;2023-05-10T00:20:32;0.75;;;0.20;;
37677;SDS011;23517;50.390;8.616;2023-05-10T00:22:59;0.40;;;0.20;;
37677;SDS011;23517;50.390;8.616;2023-05-10T00:25:26;2.47;;;0.30;;
37677;SDS011;23517;50.390;8.616;2023-05-10T00:27:53;0.70;;;0.30;;
37677;SDS011;23517;50.390;8.616;2023-05-10T00:30:21;0.55;;;0.30;;
37677;SDS011;23517;50.390;8.616;2023-05-10T00:32:48;0.32;;;0.30;;
37677;SDS011;23517;50.390;8.616;2023-05-10T00:35:15;3.10;;;0.30;;
37677;SDS011;23517;50.390;8.616;2023-05-10T00:37:42;1.27;;;0.30;;
37677;SDS011;23517;50.390;8.616;2023-05-10T00:40:09;1.02;;;0.30;;
37677;SDS011;23517;50.390;8.616;2023-05-10T00:42:36;0.63;;;0.22;;
37677;SDS011;23517;50.390;8.616;2023-05-10T00:45:03;0.30;;;0.20;;
37677;SDS011;23517;50.390;8.616;2023-05-10T00:47:31;0.93;;;0.30;;
37677;SDS011;23517;50.390;8.616;2023-05-10T00:49:58;0.20;;;0.20;;
37677;SDS011;23517;50.390;8.616;2023-05-10T00:52:27;1.05;;;0.20;;
37677;SDS011;23517;50.390;8.616;2023-05-10T00:54:55;1.17;;;0.20;;
37677;SDS011;23517;50.390;8.616;2023-05-10T00:57:22;0.10;;;0.10;;
37677;SDS011;23517;50.390;8.616;2023-05-10T00:59:49;1.23;;;0.32;;
37677;SDS011;23517;50.390;8.616;2023-05-10T01:02:17;2.05;;;0.20;;
37677;SDS011;23517;50.390;8.616;2023-05-10T01:04:44;4.75;;;0.40;;
37677;SDS011;23517;50.390;8.616;2023-05-10T01:07:11;0.30;;;0.30;;
37677;SDS011;23517;50.390;8.616;2023-05-10T01:09:37;0.22;;;0.22;;
37677;SDS011;23517;50.390;8.616;2023-05-10T01:12:04;0.57;;;0.20;;
37677;SDS011;23517;50.390;8.616;2023-05-10T01:14:33;4.47;;;0.30;;
37677;SDS011;23517;50.390;8.616;2023-05-10T01:17:02;0.77;;;0.20;;
37677;SDS011;23517;50.390;8.616;2023-05-10T01:19:29;0.68;;;0.20;;
37677;SDS011;23517;50.390;8.616;2023-05-10T01:22:01;0.47;;;0.22;;
37677;SDS011;23517;50.390;8.616;2023-05-10T01:31:06;0.20;;;0.20;;
37677;SDS011;23517;50.390;8.616;2023-05-10T01:34:12;2.13;;;0.30;;
37677;SDS011;23517;50.390;8.616;2023-05-10T01:39:49;0.80;;;0.30;;
37677;SDS011;23517;50.390;8.616;2023-05-10T01:42:40;0.80;;;0.30;;
37677;SDS011;23517;50.390;8.616;2023-05-10T01:48:24;3.13;;;0.43;;
37677;SDS011;23517;50.390;8.616;2023-05-10T01:50:53;2.97;;;0.30;;
37677;SDS011;23517;50.390;8.616;2023-05-10T01:53:22;2.50;;;0.30;;
37677;SDS011;23517;50.390;8.616;2023-05-10T01:55:51;0.30;;;0.30;;
37677;SDS011;23517;50.390;8.616;2023-05-10T01:58:23;1.17;;;0.30;;
37677;SDS011;23517;50.390;8.616;2023-05-10T02:00:58;0.95;;;0.30;;
37677;SDS011;23517;50.390;8.616;2023-05-10T02:03:27;0.55;;;0.40;;
37677;SDS011;23517;50.390;8.616;2023-05-10T02:05:56;0.20;;;0.20;;
37677;SDS011;23517;50.390;8.616;2023-05-10T02:08:24;0.35;;;0.32;;
37677;SDS011;23517;50.390;8.616;2023-05-10T02:10:52;0.20;;;0.20;;
37677;SDS011;23517;50.390;8.616;2023-05-10T02:13:22;1.90;;;0.38;;
37677;SDS011;23517;50.390;8.616;2023-05-10T02:15:51;0.57;;;0.30;;
37677;SDS011;23517;50.390;8.616;2023-05-10T02:18:20;0.43;;;0.40;;
37677;SDS011;23517;50.390;8.616;2023-05-10T02:20:48;0.20;;;0.20;;
37677;SDS011;23517;50.390;8.616;2023-05-10T02:23:17;2.70;;;0.30;;
37677;SDS011;23517;50.390;8.616;2023-05-10T02:25:44;0.20;;;0.20;;
37677;SDS011;23517;50.390;8.616;2023-05-10T02:28:13;0.30;;;0.30;;
37677;SDS011;23517;50.390;8.616;2023-05-10T02:30:41;2.30;;;0.40;;
37677;SDS011;23517;50.390;8.616;2023-05-10T02:33:08;0.28;;;0.20;;
37677;SDS011;23517;50.390;8.616;2023-05-10T02:35:37;0.90;;;0.40;;
37677;SDS011;23517;50.390;8.616;2023-05-10T02:38:04;0.47;;;0.47;;
37677;SDS011;23517;50.390;8.616;2023-05-10T02:40:33;3.33;;;0.50;;
37677;SDS011;23517;50.390;8.616;2023-05-10T02:43:01;2.38;;;0.40;;
37677;SDS011;23517;50.390;8.616;2023-05-10T02:45:30;0.45;;;0.40;;
37677;SDS011;23517;50.390;8.616;2023-05-10T02:47:58;2.05;;;0.30;;
37677;SDS011;23517;50.390;8.616;2023-05-10T02:50:27;0.40;;;0.40;;
37677;SDS011;23517;50.390;8.616;2023-05-10T02:53:00;0.40;;;0.40;;
37677;SDS011;23517;50.390;8.616;2023-05-10T02:55:35;1.75;;;0.47;;
37677;SDS011;23517;50.390;8.616;2023-05-10T02:58:04;1.60;;;0.40;;
37677;SDS011;23517;50.390;8.616;2023-05-10T03:00:31;4.03;;;0.50;;
37677;SDS011;23517;50.390;8.616;2023-05-10T03:02:58;0.70;;;0.40;;
37677;SDS011;23517;50.390;8.616;2023-05-10T03:05:25;0.40;;;0.40;;
37677;SDS011;23517;50.390;8.616;2023-05-10T03:07:51;0.55;;;0.38;;
37677;SDS011;23517;50.390;8.616;2023-05-10T03:10:18;0.40;;;0.40;;
37677;SDS011;23517;50.390;8.616;2023-05-10T03:13:01;0.63;;;0.63;;
37677;SDS011;23517;50.390;8.616;2023-05-10T03:18:46;1.38;;;0.30;;
37677;SDS011;23517;50.390;8.616;2023-05-10T03:21:21;0.85;;;0.40;;
37677;SDS011;23517;50.390;8.616;2023-05-10T03:23:56;1.50;;;0.50;;
37677;SDS011;23517;50.390;8.616;2023-05-10T03:26:32;1.25;;;0.40;;
37677;SDS011;23517;50.390;8.616;2023-05-10T03:28:59;0.45;;;0.45;;
37677;SDS011;23517;50.390;8.616;2023-05-10T03:31:27;1.75;;;0.60;;
37677;SDS011;23517;50.390;8.616;2023-05-10T03:33:53;0.60;;;0.60;;
37677;SDS011;23517;50.390;8.616;2023-05-10T03:36:20;1.75;;;0.60;;
37677;SDS011;23517;50.390;8.616;2023-05-10T03:38:47;1.55;;;0.60;;
37677;SDS011;23517;50.390;8.616;2023-05-10T03:41:13;2.15;;;0.40;;
37677;SDS011;23517;50.390;8.616;2023-05-10T03:43:40;1.95;;;0.50;;
37677;SDS011;23517;50.390;8.616;2023-05-10T03:46:07;1.35;;;0.50;;
37677;SDS011;23517;50.390;8.616;2023-05-10T03:48:34;4.40;;;0.50;;
37677;SDS011;23517;50.390;8.616;2023-05-10T03:51:00;0.57;;;0.50;;
37677;SDS011;23517;50.390;8.616;2023-05-10T03:53:27;2.60;;;0.70;;
37677;SDS011;23517;50.390;8.616;2023-05-10T03:55:54;1.00;;;0.50;;
37677;SDS011;23517;50.390;8.616;2023-05-10T03:58:20;0.40;;;0.40;;
37677;SDS011;23517;50.390;8.616;2023-05-10T04:00:47;0.68;;;0.47;;
37677;SDS011;23517;50.390;8.616;2023-05-10T04:03:14;0.45;;;0.45;;
37677;SDS011;23517;50.390;8.616;2023-05-10T04:05:41;0.63;;;0.60;;
37677;SDS011;23517;50.390;8.616;2023-05-10T04:08:08;0.98;;;0.98;;
37677;SDS011;23517;50.390;8.616;2023-05-10T04:10:34;0.50;;;0.50;;
37677;SDS011;23517;50.390;8.616;2023-05-10T04:13:01;0.38;;;0.38;;
37677;SDS011;23517;50.390;8.616;2023-05-10T04:15:28;3.92;;;0.50;;
37677;SDS011;23517;50.390;8.616;2023-05-10T04:17:54;0.60;;;0.60;;
37677;SDS011;23517;50.390;8.616;2023-05-10T04:20:21;3.83;;;0.60;;
37677;SDS011;23517;50.390;8.616;2023-05-10T04:22:48;0.50;;;0.40;;
37677;SDS011;23517;50.390;8.616;2023-05-10T04:25:14;0.82;;;0.70;;
37677;SDS011;23517;50.390;8.616;2023-05-10T04:27:41;0.50;;;0.40;;
37677;SDS011;23517;50.390;8.616;2023-05-10T04:30:08;3.75;;;0.68;;
37677;SDS011;23517;50.390;8.616;2023-05-10T04:32:35;0.57;;;0.40;;
37677;SDS011;23517;50.390;8.616;2023-05-10T04:35:02;2.65;;;0.60;;
37677;SDS011;23517;50.390;8.616;2023-05-10T04:37:30;5.20;;;0.80;;
37677;SDS011;23517;50.390;8.616;2023-05-10T04:39:57;3.15;;;0.70;;
37677;SDS011;23517;50.390;8.616;2023-05-10T04:42:25;1.13;;;0.77;;
37677;SDS011;23517;50.390;8.616;2023-05-10T04:44:52;0.82;;;0.60;;
37677;SDS011;23517;50.390;8.616;2023-05-10T04:47:19;1.35;;;0.60;;
37677;SDS011;23517;50.390;8.616;2023-05-10T04:49:45;2.67;;;0.70;;
37677;SDS011;23517;50.390;8.616;2023-05-10T04:52:12;2.35;;;0.52;;
37677;SDS011;23517;50.390;8.616;2023-05-10T04:54:40;1.23;;;0.43;;
37677;SDS011;23517;50.390;8.616;2023-05-10T04:57:06;0.50;;;0.50;;
37677;SDS011;23517;50.390;8.616;2023-05-10T04:59:35;0.93;;;0.60;;
37677;SDS011;23517;50.390;8.616;2023-05-10T05:02:03;0.65;;;0.65;;
37677;SDS011;23517;50.390;8.616;2023-05-10T05:04:30;1.98;;;0.63;;
37677;SDS011;23517;50.390;8.616;2023-05-10T05:06:57;3.30;;;0.60;;
37677;SDS011;23517;50.390;8.616;2023-05-10T05:09:24;1.00;;;0.50;;
37677;SDS011;23517;50.390;8.616;2023-05-10T05:11:50;1.08;;;0.50;;
37677;SDS011;23517;50.390;8.616;2023-05-10T05:14:17;4.53;;;0.70;;
37677;SDS011;23517;50.390;8.616;2023-05-10T05:16:44;6.43;;;0.70;;
37677;SDS011;23517;50.390;8.616;2023-05-10T05:19:10;0.70;;;0.38;;
37677;SDS011;23517;50.390;8.616;2023-05-10T05:21:37;1.55;;;0.47;;
37677;SDS011;23517;50.390;8.616;2023-05-10T05:24:04;2.22;;;0.50;;
37677;SDS011;23517;50.390;8.616;2023-05-10T05:26:33;2.92;;;0.50;;
37677;SDS011;23517;50.390;8.616;2023-05-10T05:29:00;0.80;;;0.40;;
37677;SDS011;23517;50.390;8.616;2023-05-10T05:31:26;0.40;;;0.35;;
37677;SDS011;23517;50.390;8.616;2023-05-10T05:33:53;0.93;;;0.60;;
37677;SDS011;23517;50.390;8.616;2023-05-10T05:36:19;4.25;;;0.60;;
37677;SDS011;23517;50.390;8.616;2023-05-10T05:38:46;3.40;;;0.40;;
37677;SDS011;23517;50.390;8.616;2023-05-10T05:41:13;4.05;;;1.55;;
37677;SDS011;23517;50.390;8.616;2023-05-10T05:43:40;0.95;;;0.55;;
37677;SDS011;23517;50.390;8.616;2023-05-10T05:46:06;2.25;;;0.40;;
37677;SDS011;23517;50.390;8.616;2023-05-10T05:48:33;1.30;;;0.60;;
37677;SDS011;23517;50.390;8.616;2023-05-10T05:51:00;1.13;;;0.43;;
37677;SDS011;23517;50.390;8.616;2023-05-10T05:53:27;2.92;;;0.22;;
37677;SDS011;23517;50.390;8.616;2023-05-10T05:55:54;2.72;;;0.43;;
37677;SDS011;23517;50.390;8.616;2023-05-10T05:58:23;1.95;;;0.50;;
37677;SDS011;23517;50.390;8.616;2023-05-10T06:00:51;0.40;;;0.40;;
37677;SDS011;23517;50.390;8.616;2023-05-10T06:03:18;4.38;;;0.65;;
37677;SDS011;23517;50.390;8.616;2023-05-10T06:05:46;0.60;;;0.60;;
37677;SDS011;23517;50.390;8.616;2023-05-10T06:08:13;0.73;;;0.50;;
37677;SDS011;23517;50.390;8.616;2023-05-10T06:10:40;2.42;;;0.60;;
37677;SDS011;23517;50.390;8.616;2023-05-10T06:13:06;0.50;;;0.50;;
37677;SDS011;23517;50.390;8.616;2023-05-10T06:15:33;2.38;;;0.40;;
37677;SDS011;23517;50.390;8.616;2023-05-10T06:18:00;0.93;;;0.50;;
37677;SDS011;23517;50.390;8.616;2023-05-10T06:20:27;0.30;;;0.30;;
37677;SDS011;23517;50.390;8.616;2023-05-10T06:22:54;1.20;;;0.40;;
37677;SDS011;23517;50.390;8.616;2023-05-10T06:25:20;0.73;;;0.30;;
37677;SDS011;23517;50.390;8.616;2023-05-10T06:27:47;0.30;;;0.30;;
37677;SDS011;23517;50.390;8.616;2023-05-10T06:30:18;0.68;;;0.40;;
37677;SDS011;23517;50.390;8.616;2023-05-10T06:32:46;1.65;;;0.40;;
37677;SDS011;23517;50.390;8.616;2023-05-10T06:35:12;0.75;;;0.40;;
37677;SDS011;23517;50.390;8.616;2023-05-10T06:37:39;0.45;;;0.30;;
37677;SDS011;23517;50.390;8.616;2023-05-10T06:40:06;0.80;;;0.50;;
37677;SDS011;23517;50.390;8.616;2023-05-10T06:42:33;0.52;;;0.30;;
37677;SDS011;23517;50.390;8.616;2023-05-10T06:45:00;0.73;;;0.40;;
37677;SDS011;23517;50.390;8.616;2023-05-10T06:47:30;4.15;;;0.38;;
37677;SDS011;23517;50.390;8.616;2023-05-10T06:49:56;0.45;;;0.40;;
37677;SDS011;23517;50.390;8.616;2023-05-10T06:52:23;0.45;;;0.32;;
37677;SDS011;23517;50.390;8.616;2023-05-10T06:54:50;2.83;;;0.40;;
37677;SDS011;23517;50.390;8.616;2023-05-10T06:57:17;2.22;;;0.40;;
37677;SDS011;23517;50.390;8.616;2023-05-10T06:59:56;0.40;;;0.40;;
37677;SDS011;23517;50.390;8.616;2023-05-10T07:02:24;0.45;;;0.38;;
37677;SDS011;23517;50.390;8.616;2023-05-10T07:04:51;0.40;;;0.40;;
37677;SDS011;23517;50.390;8.616;2023-05-10T07:07:18;0.57;;;0.40;;
37677;SDS011;23517;50.390;8.616;2023-05-10T07:09:45;1.08;;;0.40;;
37677;SDS011;23517;50.390;8.616;2023-05-10T07:12:12;0.40;;;0.40;;
37677;SDS011;23517;50.390;8.616;2023-05-10T07:14:41;0.30;;;0.30;;
37677;SDS011;23517;50.390;8.616;2023-05-10T07:17:08;0.50;;;0.50;;
37677;SDS011;23517;50.390;8.616;2023-05-10T07:19:35;1.50;;;0.60;;
37677;SDS011;23517;50.390;8.616;2023-05-10T07:22:02;1.00;;;0.98;;
37677;SDS011;23517;50.390;8.616;2023-05-10T07:24:29;0.73;;;0.73;;
37677;SDS011;23517;50.390;8.616;2023-05-10T07:26:57;2.88;;;0.90;;
37677;SDS011;23517;50.390;8.616;2023-05-10T07:29:23;1.20;;;1.10;;
37677;SDS011;23517;50.390;8.616;2023-05-10T07:31:50;1.40;;;1.20;;
37677;SDS011;23517;50.390;8.616;2023-05-10T07:34:17;2.92;;;1.08;;
37677;SDS011;23517;50.390;8.616;2023-05-10T07:36:44;2.10;;;1.33;;
37677;SDS011;23517;50.390;8.616;2023-05-10T07:39:10;1.10;;;0.95;;
37677;SDS011;23517;50.390;8.616;2023-05-10T07:41:46;2.53;;;1.40;;
37677;SDS011;23517;50.390;8.616;2023-05-10T07:44:12;2.65;;;1.75;;
37677;SDS011;23517;50.390;8.616;2023-05-10T07:46:39;1.40;;;1.30;;
37677;SDS011;23517;50.390;8.616;2023-05-10T07:49:06;2.97;;;1.65;;
37677;SDS011;23517;50.390;8.616;2023-05-10T07:51:33;2.10;;;1.95;;
37677;SDS011;23517;50.390;8.616;2023-05-10T07:53:59;3.78;;;2.00;;
37677;SDS011;23517;50.390;8.616;2023-05-10T07:56:27;4.68;;;3.00;;
37677;SDS011;23517;50.390;8.616;2023-05-10T07:58:56;3.53;;;2.60;;
37677;SDS011;23517;50.390;8.616;2023-05-10T08:01:23;4.03;;;3.10;;
37677;SDS011;23517;50.390;8.616;2023-05-10T08:03:50;5.82;;;2.70;;
37677;SDS011;23517;50.390;8.616;2023-05-10T08:06:19;4.78;;;2.42;;
37677;SDS011;23517;50.390;8.616;2023-05-10T08:08:47;6.20;;;2.65;;
37677;SDS011;23517;50.390;8.616;2023-05-10T08:11:19;2.70;;;2.40;;
37677;SDS011;23517;50.390;8.616;2023-05-10T08:13:47;4.30;;;2.55;;
37677;SDS011;23517;50.390;8.616;2023-05-10T08:16:16;8.27;;;4.72;;
37677;SDS011;23517;50.390;8.616;2023-05-10T08:18:43;2.75;;;2.45;;
37677;SDS011;23517;50.390;8.616;2023-05-10T08:21:13;2.50;;;2.30;;
37677;SDS011;23517;50.390;8.616;2023-05-10T08:23:40;3.00;;;2.70;;
37677;SDS011;23517;50.390;8.616;2023-05-10T08:26:07;5.03;;;3.15;;
37677;SDS011;23517;50.390;8.616;2023-05-10T08:28:33;3.20;;;2.50;;
37677;SDS011;23517;50.390;8.616;2023-05-10T08:31:00;4.22;;;3.03;;
37677;SDS011;23517;50.390;8.616;2023-05-10T08:33:27;5.75;;;2.65;;
37677;SDS011;23517;50.390;8.616;2023-05-10T08:35:53;4.13;;;2.25;;
37677;SDS011;23517;50.390;8.616;2023-05-10T08:38:20;1.73;;;1.42;;
37677;SDS011;23517;50.390;8.616;2023-05-10T08:40:46;3.38;;;1.67;;
37677;SDS011;23517;50.390;8.616;2023-05-10T08:43:16;2.25;;;1.23;;
37677;SDS011;23517;50.390;8.616;2023-05-10T08:45:44;2.20;;;1.30;;
37677;SDS011;23517;50.390;8.616;2023-05-10T08:48:13;2.25;;;1.27;;
37677;SDS011;23517;50.390;8.616;2023-05-10T08:50:40;3.78;;;1.35;;
37677;SDS011;23517;50.390;8.616;2023-05-10T08:53:09;6.53;;;1.73;;
37677;SDS011;23517;50.390;8.616;2023-05-10T08:55:37;5.00;;;1.15;;
37677;SDS011;23517;50.390;8.616;2023-05-10T08:58:06;3.42;;;1.23;;
37677;SDS011;23517;50.390;8.616;2023-05-10T09:00:33;1.23;;;1.00;;
37677;SDS011;23517;50.390;8.616;2023-05-10T09:03:01;4.30;;;0.90;;
37677;SDS011;23517;50.390;8.616;2023-05-10T09:05:29;1.67;;;1.20;;
37677;SDS011;23517;50.390;8.616;2023-05-10T09:07:56;6.45;;;1.20;;
37677;SDS011;23517;50.390;8.616;2023-05-10T09:10:26;1.85;;;1.20;;
37677;SDS011;23517;50.390;8.616;2023-05-10T09:12:55;1.73;;;1.00;;
37677;SDS011;23517;50.390;8.616;2023-05-10T09:15:24;2.60;;;1.13;;
37677;SDS011;23517;50.390;8.616;2023-05-10T09:17:51;1.20;;;1.02;;
37677;SDS011;23517;50.390;8.616;2023-05-10T09:20:18;4.97;;;1.33;;
37677;SDS011;23517;50.390;8.616;2023-05-10T09:22:45;4.65;;;1.02;;
37677;SDS011;23517;50.390;8.616;2023-05-10T09:25:13;6.32;;;1.38;;
37677;SDS011;23517;50.390;8.616;2023-05-10T09:27:45;3.90;;;1.15;;
37677;SDS011;23517;50.390;8.616;2023-05-10T09:30:18;3.88;;;1.10;;
37677;SDS011;23517;50.390;8.616;2023-05-10T09:32:53;5.88;;;1.38;;
37677;SDS011;23517;50.390;8.616;2023-05-10T09:35:22;2.53;;;0.90;;
37677;SDS011;23517;50.390;8.616;2023-05-10T09:37:56;1.77;;;1.17;;
37677;SDS011;23517;50.390;8.616;2023-05-10T09:40:27;0.77;;;0.77;;
37677;SDS011;23517;50.390;8.616;2023-05-10T09:45:33;1.95;;;0.70;;
37677;SDS011;23517;50.390;8.616;2023-05-10T09:48:04;0.95;;;0.82;;
37677;SDS011;23517;50.390;8.616;2023-05-10T09:50:31;1.02;;;0.60;;
37677;SDS011;23517;50.390;8.616;2023-05-10T09:52:59;5.50;;;1.13;;
37677;SDS011;23517;50.390;8.616;2023-05-10T09:55:39;1.17;;;0.68;;
37677;SDS011;23517;50.390;8.616;2023-05-10T09:58:12;6.03;;;0.65;;
37677;SDS011;23517;50.390;8.616;2023-05-10T10:00:41;1.95;;;0.60;;
37677;SDS011;23517;50.390;8.616;2023-05-10T10:03:16;2.03;;;0.55;;
37677;SDS011;23517;50.390;8.616;2023-05-10T10:05:45;6.70;;;0.50;;
37677;SDS011;23517;50.390;8.616;2023-05-10T10:08:14;3.60;;;0.68;;
37677;SDS011;23517;50.390;8.616;2023-05-10T10:10:41;2.80;;;0.80;;
37677;SDS011;23517;50.390;8.616;2023-05-10T10:13:11;3.95;;;0.70;;
37677;SDS011;23517;50.390;8.616;2023-05-10T10:15:38;0.88;;;0.65;;
37677;SDS011;23517;50.390;8.616;2023-05-10T10:18:05;1.15;;;0.80;;
37677;SDS011;23517;50.390;8.616;2023-05-10T10:20:33;1.55;;;0.75;;
37677;SDS011;23517;50.390;8.616;2023-05-10T10:22:59;1.38;;;0.80;;
37677;SDS011;23517;50.390;8.616;2023-05-10T10:25:26;2.08;;;0.85;;
37677;SDS011;23517;50.390;8.616;2023-05-10T10:36:06;3.42;;;0.85;;
37677;SDS011;23517;50.390;8.616;2023-05-10T10:44:22;2.00;;;0.80;;
37677;SDS011;23517;50.390;8.616;2023-05-10T10:52:26;1.98;;;0.70;;
37677;SDS011;23517;50.390;8.616;2023-05-10T10:57:28;2.25;;;0.75;;
37677;SDS011;23517;50.390;8.616;2023-05-10T11:02:51;1.90;;;0.70;;
37677;SDS011;23517;50.390;8.616;2023-05-10T11:11:19;1.23;;;0.70;;
37677;SDS011;23517;50.390;8.616;2023-05-10T11:13:41;3.83;;;0.80;;
37677;SDS011;23517;50.390;8.616;2023-05-10T11:21:30;3.65;;;0.60;;
37677;SDS011;23517;50.390;8.616;2023-05-10T11:23:59;2.70;;;0.57;;
37677;SDS011;23517;50.390;8.616;2023-05-10T11:26:30;0.65;;;0.50;;
37677;SDS011;23517;50.390;8.616;2023-05-10T11:29:00;0.70;;;0.60;;
37677;SDS011;23517;50.390;8.616;2023-05-10T11:31:28;2.25;;;0.50;;
37677;SDS011;23517;50.390;8.616;2023-05-10T11:33:56;3.25;;;0.60;;
37677;SDS011;23517;50.390;8.616;2023-05-10T11:36:25;0.60;;;0.43;;
37677;SDS011;23517;50.390;8.616;2023-05-10T11:38:55;0.82;;;0.40;;
37677;SDS011;23517;50.390;8.616;2023-05-10T11:41:23;0.60;;;0.45;;
37677;SDS011;23517;50.390;8.616;2023-05-10T11:43:51;3.05;;;0.70;;
37677;SDS011;23517;50.390;8.616;2023-05-10T11:46:20;2.28;;;0.40;;
37677;SDS011;23517;50.390;8.616;2023-05-10T11:48:55;2.92;;;0.77;;
37677;SDS011;23517;50.390;8.616;2023-05-10T11:51:27;1.17;;;0.50;;
37677;SDS011;23517;50.390;8.616;2023-05-10T11:53:54;0.90;;;0.32;;
37677;SDS011;23517;50.390;8.616;2023-05-10T11:56:22;1.95;;;0.60;;
37677;SDS011;23517;50.390;8.616;2023-05-10T11:58:52;1.40;;;0.40;;
37677;SDS011;23517;50.390;8.616;2023-05-10T12:01:22;3.97;;;0.40;;
37677;SDS011;23517;50.390;8.616;2023-05-10T12:03:50;2.53;;;0.40;;
37677;SDS011;23517;50.390;8.616;2023-05-10T12:06:19;2.78;;;0.60;;
37677;SDS011;23517;50.390;8.616;2023-05-10T12:08:47;2.92;;;0.32;;
37677;SDS011;23517;50.390;8.616;2023-05-10T12:11:18;3.60;;;0.55;;
37677;SDS011;23517;50.390;8.616;2023-05-10T12:13:47;3.53;;;0.60;;
37677;SDS011;23517;50.390;8.616;2023-05-10T12:16:17;3.20;;;0.40;;
37677;SDS011;23517;50.390;8.616;2023-05-10T12:18:52;2.97;;;0.80;;
37677;SDS011;23517;50.390;8.616;2023-05-10T12:21:23;3.00;;;0.60;;
37677;SDS011;23517;50.390;8.616;2023-05-10T12:23:52;2.53;;;0.40;;
37677;SDS011;23517;50.390;8.616;2023-05-10T12:26:24;0.65;;;0.32;;
37677;SDS011;23517;50.390;8.616;2023-05-10T12:28:52;2.22;;;0.40;;
37677;SDS011;23517;50.390;8.616;2023-05-10T12:31:20;2.25;;;0.50;;
37677;SDS011;23517;50.390;8.616;2023-05-10T12:33:47;0.47;;;0.47;;
37677;SDS011;23517;50.390;8.616;2023-05-10T12:36:15;5.28;;;0.68;;
37677;SDS011;23517;50.390;8.616;2023-05-10T12:38:43;1.13;;;0.40;;
37677;SDS011;23517;50.390;8.616;2023-05-10T12:41:15;4.20;;;0.88;;
37677;SDS011;23517;50.390;8.616;2023-05-10T12:43:43;1.45;;;0.40;;
37677;SDS011;23517;50.390;8.616;2023-05-10T12:46:14;2.17;;;0.45;;
37677;SDS011;23517;50.390;8.616;2023-05-10T12:48:43;2.83;;;0.65;;
37677;SDS011;23517;50.390;8.616;2023-05-10T12:51:12;2.15;;;0.30;;
37677;SDS011;23517;50.390;8.616;2023-05-10T12:53:41;0.70;;;0.35;;
37677;SDS011;23517;50.390;8.616;2023-05-10T12:56:11;2.83;;;0.50;;
37677;SDS011;23517;50.390;8.616;2023-05-10T12:58:38;0.93;;;0.43;;
37677;SDS011;23517;50.390;8.616;2023-05-10T13:01:04;1.23;;;0.32;;
37677;SDS011;23517;50.390;8.616;2023-05-10T13:03:31;2.70;;;0.40;;
37677;SDS011;23517;50.390;8.616;2023-05-10T13:05:58;2.95;;;0.32;;
37677;SDS011;23517;50.390;8.616;2023-05-10T13:08:25;1.73;;;0.70;;
37677;SDS011;23517;50.390;8.616;2023-05-10T13:10:52;0.28;;;0.28;;
37677;SDS011;23517;50.390;8.616;2023-05-10T13:13:19;1.17;;;0.40;;
37677;SDS011;23517;50.390;8.616;2023-05-10T13:15:45;3.72;;;0.43;;
37677;SDS011;23517;50.390;8.616;2023-05-10T13:18:12;2.75;;;0.40;;
37677;SDS011;23517;50.390;8.616;2023-05-10T13:20:39;1.33;;;0.40;;
37677;SDS011;23517;50.390;8.616;2023-05-10T13:23:06;1.95;;;0.60;;
37677;SDS011;23517;50.390;8.616;2023-05-10T13:25:32;5.15;;;0.30;;
37677;SDS011;23517;50.390;8.616;2023-05-10T13:28:00;2.72;;;0.40;;
37677;SDS011;23517;50.390;8.616;2023-05-10T13:30:27;2.17;;;0.38;;
37677;SDS011;23517;50.390;8.616;2023-05-10T13:32:54;2.50;;;0.30;;
37677;SDS011;23517;50.390;8.616;2023-05-10T13:35:21;2.30;;;0.40;;
37677;SDS011;23517;50.390;8.616;2023-05-10T13:37:48;1.75;;;0.45;;
37677;SDS011;23517;50.390;8.616;2023-05-10T13:40:16;1.65;;;0.30;;
37677;SDS011;23517;50.390;8.616;2023-05-10T13:42:43;3.58;;;0.30;;
37677;SDS011;23517;50.390;8.616;2023-05-10T13:45:09;1.88;;;0.30;;
37677;SDS011;23517;50.390;8.616;2023-05-10T13:47:38;0.22;;;0.22;;
37677;SDS011;23517;50.390;8.616;2023-05-10T13:50:05;2.17;;;0.30;;
37677;SDS011;23517;50.390;8.616;2023-05-10T13:52:33;0.57;;;0.25;;
37677;SDS011;23517;50.390;8.616;2023-05-10T13:54:59;0.80;;;0.65;;
37677;SDS011;23517;50.390;8.616;2023-05-10T13:57:26;2.63;;;0.50;;
37677;SDS011;23517;50.390;8.616;2023-05-10T13:59:54;2.03;;;0.50;;
37677;SDS011;23517;50.390;8.616;2023-05-10T14:02:22;2.35;;;0.50;;
37677;SDS011;23517;50.390;8.616;2023-05-10T14:04:50;2.22;;;0.25;;
37677;SDS011;23517;50.390;8.616;2023-05-10T14:07:17;4.82;;;0.32;;
37677;SDS011;23517;50.390;8.616;2023-05-10T14:09:44;2.03;;;0.20;;
37677;SDS011;23517;50.390;8.616;2023-05-10T14:12:11;1.63;;;0.20;;
37677;SDS011;23517;50.390;8.616;2023-05-10T14:14:37;0.50;;;0.30;;
37677;SDS011;23517;50.390;8.616;2023-05-10T14:17:04;3.00;;;0.47;;
37677;SDS011;23517;50.390;8.616;2023-05-10T14:19:31;1.35;;;0.40;;
37677;SDS011;23517;50.390;8.616;2023-05-10T14:21:59;2.63;;;0.38;;
37677;SDS011;23517;50.390;8.616;2023-05-10T14:24:26;1.33;;;0.32;;
37677;SDS011;23517;50.390;8.616;2023-05-10T14:26:53;9.02;;;1.40;;
37677;SDS011;23517;50.390;8.616;2023-05-10T14:29:20;3.45;;;0.50;;
37677;SDS011;23517;50.390;8.616;2023-05-10T14:31:47;1.95;;;0.73;;
37677;SDS011;23517;50.390;8.616;2023-05-10T14:34:15;6.53;;;0.93;;
37677;SDS011;23517;50.390;8.616;2023-05-10T14:36:42;2.40;;;0.60;;
37677;SDS011;23517;50.390;8.616;2023-05-10T14:39:08;8.32;;;1.52;;
37677;SDS011;23517;50.390;8.616;2023-05-10T14:41:36;6.05;;;0.80;;
37677;SDS011;23517;50.390;8.616;2023-05-10T14:44:03;6.35;;;0.60;;
37677;SDS011;23517;50.390;8.616;2023-05-10T14:46:29;3.47;;;0.82;;
37677;SDS011;23517;50.390;8.616;2023-05-10T14:48:56;5.32;;;0.95;;
37677;SDS011;23517;50.390;8.616;2023-05-10T14:51:22;5.78;;;0.70;;
37677;SDS011;23517;50.390;8.616;2023-05-10T14:53:49;1.23;;;0.40;;
37677;SDS011;23517;50.390;8.616;2023-05-10T14:56:16;0.30;;;0.30;;
37677;SDS011;23517;50.390;8.616;2023-05-10T14:58:42;3.78;;;0.55;;
37677;SDS011;23517;50.390;8.616;2023-05-10T15:01:09;3.15;;;0.60;;
37677;SDS011;23517;50.390;8.616;2023-05-10T15:03:36;0.57;;;0.30;;
37677;SDS011;23517;50.390;8.616;2023-05-10T15:06:04;3.13;;;0.40;;
37677;SDS011;23517;50.390;8.616;2023-05-10T15:08:31;1.42;;;0.40;;
37677;SDS011;23517;50.390;8.616;2023-05-10T15:10:57;3.00;;;0.35;;
37677;SDS011;23517;50.390;8.616;2023-05-10T15:13:26;2.60;;;0.28;;
37677;SDS011;23517;50.390;8.616;2023-05-10T15:15:53;3.53;;;0.40;;
37677;SDS011;23517;50.390;8.616;2023-05-10T15:18:19;5.40;;;1.13;;
37677;SDS011;23517;50.390;8.616;2023-05-10T15:20:46;5.03;;;0.70;;
37677;SDS011;23517;50.390;8.616;2023-05-10T15:23:12;3.63;;;0.47;;
37677;SDS011;23517;50.390;8.616;2023-05-10T15:25:39;1.63;;;0.47;;
37677;SDS011;23517;50.390;8.616;2023-05-10T15:28:06;0.20;;;0.20;;
37677;SDS011;23517;50.390;8.616;2023-05-10T15:30:32;2.90;;;0.30;;
37677;SDS011;23517;50.390;8.616;2023-05-10T15:32:59;4.60;;;0.68;;
37677;SDS011;23517;50.390;8.616;2023-05-10T15:35:26;1.75;;;0.30;;
37677;SDS011;23517;50.390;8.616;2023-05-10T15:37:53;0.40;;;0.40;;
37677;SDS011;23517;50.390;8.616;2023-05-10T15:40:19;1.58;;;0.32;;
37677;SDS011;23517;50.390;8.616;2023-05-10T15:42:46;1.17;;;0.50;;
37677;SDS011;23517;50.390;8.616;2023-05-10T15:45:12;2.90;;;0.30;;
37677;SDS011;23517;50.390;8.616;2023-05-10T15:47:39;0.57;;;0.40;;